Terminal Aerodrome Forecast
Issued by NWS Raleigh/Durham, NC

Home | Current Version | Previous Version | Text Only | Print | Product List | Glossary On
Versions: 1 2 3 4 5 6 7 8 9 10 11 12 13 14 15 16 17 18 19 20 21 22 23 24 25 26 27 28 29 30
000
FTUS42 KRAH 241840 AAA
TAFRDU
TAF AMD
KRDU 241840Z 2419/2518 15010KT P6SM VCSH SCT015 BKN025 OVC050
      TEMPO 2420/2424 VRB20G35KT 1SM +TSRA BR SCT025 BKN035CB BKN150
     FM250100 18010KT 5SM -SHRA BR FEW006 BKN015
     FM250600 21009KT P6SM BKN010
     FM251400 24012G20KT P6SM SCT035=

USA.gov is the U.S. government's official web portal to all federal, state and local government web resources and services.